sensor_id;sensor_type;location;lat;lon;timestamp;temperature;humidity
13093;DHT22;6612;49.568;11.000;2024-03-02T00:01:31;10.80;62.60
13093;DHT22;6612;49.568;11.000;2024-03-02T00:03:58;10.70;62.60
13093;DHT22;6612;49.568;11.000;2024-03-02T00:06:25;10.70;62.70
13093;DHT22;6612;49.568;11.000;2024-03-02T00:08:57;10.70;62.70
13093;DHT22;6612;49.568;11.000;2024-03-02T00:11:26;10.80;63.20
13093;DHT22;6612;49.568;11.000;2024-03-02T00:13:53;10.80;63.20
13093;DHT22;6612;49.568;11.000;2024-03-02T00:16:20;10.80;63.10
13093;DHT22;6612;49.568;11.000;2024-03-02T00:18:47;10.80;63.20
13093;DHT22;6612;49.568;11.000;2024-03-02T00:21:15;10.80;63.20
13093;DHT22;6612;49.568;11.000;2024-03-02T00:23:45;10.90;63.40
13093;DHT22;6612;49.568;11.000;2024-03-02T00:26:12;10.90;64.20
13093;DHT22;6612;49.568;11.000;2024-03-02T00:28:41;10.90;63.50
13093;DHT22;6612;49.568;11.000;2024-03-02T00:31:12;10.90;63.60
13093;DHT22;6612;49.568;11.000;2024-03-02T00:33:41;10.90;63.50
13093;DHT22;6612;49.568;11.000;2024-03-02T00:36:09;10.90;63.60
13093;DHT22;6612;49.568;11.000;2024-03-02T00:38:44;11.00;63.70
13093;DHT22;6612;49.568;11.000;2024-03-02T00:41:19;11.00;64.00
13093;DHT22;6612;49.568;11.000;2024-03-02T00:43:56;11.00;64.00
13093;DHT22;6612;49.568;11.000;2024-03-02T00:46:23;11.00;64.00
13093;DHT22;6612;49.568;11.000;2024-03-02T00:48:55;11.00;63.60
13093;DHT22;6612;49.568;11.000;2024-03-02T00:51:24;11.00;64.00
13093;DHT22;6612;49.568;11.000;2024-03-02T00:53:52;11.00;63.80
13093;DHT22;6612;49.568;11.000;2024-03-02T00:56:21;11.00;63.70
13093;DHT22;6612;49.568;11.000;2024-03-02T00:58:50;11.00;63.80
13093;DHT22;6612;49.568;11.000;2024-03-02T01:01:17;11.00;64.00
13093;DHT22;6612;49.568;11.000;2024-03-02T01:03:45;11.00;63.90
13093;DHT22;6612;49.568;11.000;2024-03-02T01:06:12;11.00;63.90
13093;DHT22;6612;49.568;11.000;2024-03-02T01:08:39;11.00;63.90
13093;DHT22;6612;49.568;11.000;2024-03-02T01:11:06;11.00;63.80
13093;DHT22;6612;49.568;11.000;2024-03-02T01:13:33;11.00;63.80
13093;DHT22;6612;49.568;11.000;2024-03-02T01:16:02;11.00;63.80
13093;DHT22;6612;49.568;11.000;2024-03-02T01:18:29;11.00;63.90
13093;DHT22;6612;49.568;11.000;2024-03-02T01:20:57;11.00;63.70
13093;DHT22;6612;49.568;11.000;2024-03-02T01:23:24;11.00;63.70
13093;DHT22;6612;49.568;11.000;2024-03-02T01:25:52;11.00;63.80
13093;DHT22;6612;49.568;11.000;2024-03-02T01:28:19;11.00;63.80
13093;DHT22;6612;49.568;11.000;2024-03-02T01:30:46;11.00;63.80
13093;DHT22;6612;49.568;11.000;2024-03-02T01:33:14;11.00;63.80
13093;DHT22;6612;49.568;11.000;2024-03-02T01:35:41;10.90;63.80
13093;DHT22;6612;49.568;11.000;2024-03-02T01:38:09;10.90;63.70
13093;DHT22;6612;49.568;11.000;2024-03-02T01:40:36;10.90;63.70
13093;DHT22;6612;49.568;11.000;2024-03-02T01:43:04;10.90;63.80
13093;DHT22;6612;49.568;11.000;2024-03-02T01:45:31;10.80;63.70
13093;DHT22;6612;49.568;11.000;2024-03-02T01:47:59;10.80;64.50
13093;DHT22;6612;49.568;11.000;2024-03-02T01:50:28;10.80;63.90
13093;DHT22;6612;49.568;11.000;2024-03-02T01:52:56;10.80;64.10
13093;DHT22;6612;49.568;11.000;2024-03-02T01:55:24;10.70;64.00
13093;DHT22;6612;49.568;11.000;2024-03-02T01:57:52;10.70;64.10
13093;DHT22;6612;49.568;11.000;2024-03-02T02:00:20;10.70;64.30
13093;DHT22;6612;49.568;11.000;2024-03-02T02:02:48;10.70;64.30
13093;DHT22;6612;49.568;11.000;2024-03-02T02:05:15;10.70;64.50
13093;DHT22;6612;49.568;11.000;2024-03-02T02:07:44;10.70;64.50
13093;DHT22;6612;49.568;11.000;2024-03-02T02:10:11;10.70;64.60
13093;DHT22;6612;49.568;11.000;2024-03-02T02:12:38;10.70;64.50
13093;DHT22;6612;49.568;11.000;2024-03-02T02:15:24;10.70;64.50
13093;DHT22;6612;49.568;11.000;2024-03-02T02:17:51;10.70;65.10
13093;DHT22;6612;49.568;11.000;2024-03-02T02:20:18;10.70;64.50
13093;DHT22;6612;49.568;11.000;2024-03-02T02:22:59;10.60;64.40
13093;DHT22;6612;49.568;11.000;2024-03-02T02:25:27;10.60;64.90
13093;DHT22;6612;49.568;11.000;2024-03-02T02:27:55;10.60;64.40
13093;DHT22;6612;49.568;11.000;2024-03-02T02:30:23;10.60;64.50
13093;DHT22;6612;49.568;11.000;2024-03-02T02:32:50;10.60;64.80
13093;DHT22;6612;49.568;11.000;2024-03-02T02:35:18;10.60;64.90
13093;DHT22;6612;49.568;11.000;2024-03-02T02:37:45;10.60;65.00
13093;DHT22;6612;49.568;11.000;2024-03-02T02:40:15;10.60;65.10
13093;DHT22;6612;49.568;11.000;2024-03-02T02:42:44;10.60;65.30
13093;DHT22;6612;49.568;11.000;2024-03-02T02:45:11;10.60;65.10
13093;DHT22;6612;49.568;11.000;2024-03-02T02:47:40;10.60;65.20
13093;DHT22;6612;49.568;11.000;2024-03-02T02:50:08;10.60;65.20
13093;DHT22;6612;49.568;11.000;2024-03-02T02:52:36;10.70;65.40
13093;DHT22;6612;49.568;11.000;2024-03-02T02:55:06;10.70;65.40
13093;DHT22;6612;49.568;11.000;2024-03-02T02:57:35;10.70;65.50
13093;DHT22;6612;49.568;11.000;2024-03-02T03:00:06;10.70;65.50
13093;DHT22;6612;49.568;11.000;2024-03-02T03:02:37;10.70;65.70
13093;DHT22;6612;49.568;11.000;2024-03-02T03:05:05;10.70;65.50
13093;DHT22;6612;49.568;11.000;2024-03-02T03:07:32;10.70;65.60
13093;DHT22;6612;49.568;11.000;2024-03-02T03:10:00;10.70;65.70
13093;DHT22;6612;49.568;11.000;2024-03-02T03:12:27;10.70;65.80
13093;DHT22;6612;49.568;11.000;2024-03-02T03:14:56;10.70;65.80
13093;DHT22;6612;49.568;11.000;2024-03-02T03:17:23;10.70;66.00
13093;DHT22;6612;49.568;11.000;2024-03-02T03:19:50;10.70;66.00
13093;DHT22;6612;49.568;11.000;2024-03-02T03:22:17;10.70;66.10
13093;DHT22;6612;49.568;11.000;2024-03-02T03:24:44;10.80;66.20
13093;DHT22;6612;49.568;11.000;2024-03-02T03:27:11;10.80;66.20
13093;DHT22;6612;49.568;11.000;2024-03-02T03:29:38;10.80;66.40
13093;DHT22;6612;49.568;11.000;2024-03-02T03:32:07;10.80;66.40
13093;DHT22;6612;49.568;11.000;2024-03-02T03:34:34;10.80;66.50
13093;DHT22;6612;49.568;11.000;2024-03-02T03:37:01;10.80;66.50
13093;DHT22;6612;49.568;11.000;2024-03-02T03:39:28;10.80;66.50
13093;DHT22;6612;49.568;11.000;2024-03-02T03:41:55;10.90;66.50
13093;DHT22;6612;49.568;11.000;2024-03-02T03:44:23;10.90;66.70
13093;DHT22;6612;49.568;11.000;2024-03-02T03:46:50;10.90;66.70
13093;DHT22;6612;49.568;11.000;2024-03-02T03:49:18;10.90;66.70
13093;DHT22;6612;49.568;11.000;2024-03-02T03:51:45;10.90;66.70
13093;DHT22;6612;49.568;11.000;2024-03-02T03:54:12;10.90;66.60
13093;DHT22;6612;49.568;11.000;2024-03-02T03:56:39;10.90;66.70
13093;DHT22;6612;49.568;11.000;2024-03-02T03:59:06;10.90;66.60
13093;DHT22;6612;49.568;11.000;2024-03-02T04:01:33;10.90;67.30
13093;DHT22;6612;49.568;11.000;2024-03-02T04:04:00;10.90;66.40
13093;DHT22;6612;49.568;11.000;2024-03-02T04:06:30;10.90;66.50
13093;DHT22;6612;49.568;11.000;2024-03-02T04:08:57;10.90;66.40
13093;DHT22;6612;49.568;11.000;2024-03-02T04:11:24;10.80;66.10
13093;DHT22;6612;49.568;11.000;2024-03-02T04:13:51;10.80;66.20
13093;DHT22;6612;49.568;11.000;2024-03-02T04:16:18;10.80;66.10
13093;DHT22;6612;49.568;11.000;2024-03-02T04:18:45;10.70;66.10
13093;DHT22;6612;49.568;11.000;2024-03-02T04:21:12;10.70;66.10
13093;DHT22;6612;49.568;11.000;2024-03-02T04:23:41;10.70;66.30
13093;DHT22;6612;49.568;11.000;2024-03-02T04:26:08;10.70;66.50
13093;DHT22;6612;49.568;11.000;2024-03-02T04:28:35;10.60;66.20
13093;DHT22;6612;49.568;11.000;2024-03-02T04:31:02;10.60;66.30
13093;DHT22;6612;49.568;11.000;2024-03-02T04:33:29;10.50;66.20
13093;DHT22;6612;49.568;11.000;2024-03-02T04:35:56;10.50;66.20
13093;DHT22;6612;49.568;11.000;2024-03-02T04:38:23;10.50;66.30
13093;DHT22;6612;49.568;11.000;2024-03-02T04:40:51;10.50;66.40
13093;DHT22;6612;49.568;11.000;2024-03-02T04:43:18;10.50;66.50
13093;DHT22;6612;49.568;11.000;2024-03-02T04:45:45;10.40;66.40
13093;DHT22;6612;49.568;11.000;2024-03-02T04:48:12;10.40;66.40
13093;DHT22;6612;49.568;11.000;2024-03-02T04:50:40;10.30;66.30
13093;DHT22;6612;49.568;11.000;2024-03-02T04:53:07;10.30;66.30
13093;DHT22;6612;49.568;11.000;2024-03-02T04:55:34;10.30;66.30
13093;DHT22;6612;49.568;11.000;2024-03-02T04:58:46;10.30;66.30
13093;DHT22;6612;49.568;11.000;2024-03-02T05:01:13;10.30;66.30
13093;DHT22;6612;49.568;11.000;2024-03-02T05:03:42;10.30;66.30
13093;DHT22;6612;49.568;11.000;2024-03-02T05:06:09;10.20;66.40
13093;DHT22;6612;49.568;11.000;2024-03-02T05:08:36;10.20;66.50
13093;DHT22;6612;49.568;11.000;2024-03-02T05:11:03;10.20;66.70
13093;DHT22;6612;49.568;11.000;2024-03-02T05:13:45;10.20;66.80
13093;DHT22;6612;49.568;11.000;2024-03-02T05:16:12;10.20;66.70
13093;DHT22;6612;49.568;11.000;2024-03-02T05:18:39;10.10;66.70
13093;DHT22;6612;49.568;11.000;2024-03-02T05:21:06;10.10;66.80
13093;DHT22;6612;49.568;11.000;2024-03-02T05:23:33;10.10;66.90
13093;DHT22;6612;49.568;11.000;2024-03-02T05:26:01;10.10;67.00
13093;DHT22;6612;49.568;11.000;2024-03-02T05:28:28;10.10;67.10
13093;DHT22;6612;49.568;11.000;2024-03-02T05:30:56;10.10;67.40
13093;DHT22;6612;49.568;11.000;2024-03-02T05:33:23;10.00;67.80
13093;DHT22;6612;49.568;11.000;2024-03-02T05:35:50;10.00;67.50
13093;DHT22;6612;49.568;11.000;2024-03-02T05:38:17;10.00;67.60
13093;DHT22;6612;49.568;11.000;2024-03-02T05:40:44;10.00;67.60
13093;DHT22;6612;49.568;11.000;2024-03-02T05:43:11;10.00;67.60
13093;DHT22;6612;49.568;11.000;2024-03-02T05:45:38;10.00;67.60
13093;DHT22;6612;49.568;11.000;2024-03-02T05:48:07;10.00;67.70
13093;DHT22;6612;49.568;11.000;2024-03-02T05:50:34;10.00;67.80
13093;DHT22;6612;49.568;11.000;2024-03-02T05:53:01;10.00;67.70
13093;DHT22;6612;49.568;11.000;2024-03-02T05:55:28;9.90;68.70
13093;DHT22;6612;49.568;11.000;2024-03-02T05:57:56;9.90;68.70
13093;DHT22;6612;49.568;11.000;2024-03-02T06:00:41;9.90;68.80
13093;DHT22;6612;49.568;11.000;2024-03-02T06:03:09;9.90;68.80
13093;DHT22;6612;49.568;11.000;2024-03-02T06:05:36;9.90;69.20
13093;DHT22;6612;49.568;11.000;2024-03-02T06:08:03;9.90;69.10
13093;DHT22;6612;49.568;11.000;2024-03-02T06:10:30;9.80;69.00
13093;DHT22;6612;49.568;11.000;2024-03-02T06:12:57;9.80;69.20
13093;DHT22;6612;49.568;11.000;2024-03-02T06:15:25;9.80;69.10
13093;DHT22;6612;49.568;11.000;2024-03-02T06:17:52;9.80;69.00
13093;DHT22;6612;49.568;11.000;2024-03-02T06:20:20;9.80;69.00
13093;DHT22;6612;49.568;11.000;2024-03-02T06:22:47;9.80;69.30
13093;DHT22;6612;49.568;11.000;2024-03-02T06:25:14;9.80;69.30
13093;DHT22;6612;49.568;11.000;2024-03-02T06:27:41;9.80;69.40
13093;DHT22;6612;49.568;11.000;2024-03-02T06:30:10;9.70;69.40
13093;DHT22;6612;49.568;11.000;2024-03-02T06:32:37;9.70;69.50
13093;DHT22;6612;49.568;11.000;2024-03-02T06:35:04;9.80;69.60
13093;DHT22;6612;49.568;11.000;2024-03-02T06:37:38;9.80;69.80
13093;DHT22;6612;49.568;11.000;2024-03-02T06:40:07;9.80;70.00
13093;DHT22;6612;49.568;11.000;2024-03-02T06:42:34;9.80;69.80
13093;DHT22;6612;49.568;11.000;2024-03-02T06:45:01;9.80;69.80
13093;DHT22;6612;49.568;11.000;2024-03-02T06:47:29;9.80;70.00
13093;DHT22;6612;49.568;11.000;2024-03-02T06:49:56;9.80;70.20
13093;DHT22;6612;49.568;11.000;2024-03-02T06:52:24;9.80;70.30
13093;DHT22;6612;49.568;11.000;2024-03-02T06:54:52;9.80;70.30
13093;DHT22;6612;49.568;11.000;2024-03-02T06:57:19;9.80;70.40
13093;DHT22;6612;49.568;11.000;2024-03-02T06:59:46;9.90;70.60
13093;DHT22;6612;49.568;11.000;2024-03-02T07:02:15;9.90;70.60
13093;DHT22;6612;49.568;11.000;2024-03-02T07:04:42;9.90;70.60
13093;DHT22;6612;49.568;11.000;2024-03-02T07:07:10;10.00;69.90
13093;DHT22;6612;49.568;11.000;2024-03-02T07:09:38;10.00;70.10
13093;DHT22;6612;49.568;11.000;2024-03-02T07:12:07;10.10;70.50
13093;DHT22;6612;49.568;11.000;2024-03-02T07:14:34;10.20;70.90
13093;DHT22;6612;49.568;11.000;2024-03-02T07:17:19;10.30;71.30
13093;DHT22;6612;49.568;11.000;2024-03-02T07:19:46;10.40;71.90
13093;DHT22;6612;49.568;11.000;2024-03-02T07:22:13;10.60;73.90
13093;DHT22;6612;49.568;11.000;2024-03-02T07:24:40;10.90;76.50
13093;DHT22;6612;49.568;11.000;2024-03-02T07:27:09;11.40;79.30
13093;DHT22;6612;49.568;11.000;2024-03-02T07:29:38;11.90;80.80
13093;DHT22;6612;49.568;11.000;2024-03-02T07:32:06;12.40;80.80
13093;DHT22;6612;49.568;11.000;2024-03-02T07:34:33;12.90;78.60
13093;DHT22;6612;49.568;11.000;2024-03-02T07:37:00;13.30;75.20
13093;DHT22;6612;49.568;11.000;2024-03-02T07:39:27;13.60;71.40
13093;DHT22;6612;49.568;11.000;2024-03-02T07:41:55;13.70;69.80
13093;DHT22;6612;49.568;11.000;2024-03-02T07:44:23;13.80;68.40
13093;DHT22;6612;49.568;11.000;2024-03-02T07:46:50;13.80;67.50
13093;DHT22;6612;49.568;11.000;2024-03-02T07:49:17;13.80;66.90
13093;DHT22;6612;49.568;11.000;2024-03-02T07:51:44;13.80;66.80
13093;DHT22;6612;49.568;11.000;2024-03-02T07:54:11;13.80;66.90
13093;DHT22;6612;49.568;11.000;2024-03-02T07:56:39;13.80;67.00
13093;DHT22;6612;49.568;11.000;2024-03-02T07:59:06;13.80;66.90
13093;DHT22;6612;49.568;11.000;2024-03-02T08:01:34;13.80;66.60
13093;DHT22;6612;49.568;11.000;2024-03-02T08:04:02;13.80;65.50
13093;DHT22;6612;49.568;11.000;2024-03-02T08:06:30;13.80;65.60
13093;DHT22;6612;49.568;11.000;2024-03-02T08:08:58;13.80;65.90
13093;DHT22;6612;49.568;11.000;2024-03-02T08:11:25;13.80;66.00
13093;DHT22;6612;49.568;11.000;2024-03-02T08:13:52;13.80;66.00
13093;DHT22;6612;49.568;11.000;2024-03-02T08:16:20;13.80;67.00
13093;DHT22;6612;49.568;11.000;2024-03-02T08:18:49;13.80;66.30
13093;DHT22;6612;49.568;11.000;2024-03-02T08:21:17;13.90;66.90
13093;DHT22;6612;49.568;11.000;2024-03-02T08:23:44;14.00;67.90
13093;DHT22;6612;49.568;11.000;2024-03-02T08:26:11;14.10;68.90
13093;DHT22;6612;49.568;11.000;2024-03-02T08:28:39;14.20;67.80
13093;DHT22;6612;49.568;11.000;2024-03-02T08:31:06;14.40;67.50
13093;DHT22;6612;49.568;11.000;2024-03-02T08:33:34;14.50;67.20
13093;DHT22;6612;49.568;11.000;2024-03-02T08:36:02;14.60;66.50
13093;DHT22;6612;49.568;11.000;2024-03-02T08:38:29;14.70;66.50
13093;DHT22;6612;49.568;11.000;2024-03-02T08:40:56;14.70;66.30
13093;DHT22;6612;49.568;11.000;2024-03-02T08:43:23;14.80;66.10
13093;DHT22;6612;49.568;11.000;2024-03-02T08:45:50;14.90;66.10
13093;DHT22;6612;49.568;11.000;2024-03-02T08:48:17;15.00;64.50
13093;DHT22;6612;49.568;11.000;2024-03-02T08:50:46;15.00;64.70
13093;DHT22;6612;49.568;11.000;2024-03-02T08:53:14;15.10;65.10
13093;DHT22;6612;49.568;11.000;2024-03-02T08:55:44;15.20;64.30
13093;DHT22;6612;49.568;11.000;2024-03-02T08:58:11;15.20;64.00
13093;DHT22;6612;49.568;11.000;2024-03-02T09:00:38;15.30;64.30
13093;DHT22;6612;49.568;11.000;2024-03-02T09:03:05;15.40;64.60
13093;DHT22;6612;49.568;11.000;2024-03-02T09:05:32;15.40;63.90
13093;DHT22;6612;49.568;11.000;2024-03-02T09:07:59;15.50;62.50
13093;DHT22;6612;49.568;11.000;2024-03-02T09:10:28;15.50;62.60
13093;DHT22;6612;49.568;11.000;2024-03-02T09:12:55;15.50;62.30
13093;DHT22;6612;49.568;11.000;2024-03-02T09:15:22;15.50;62.80
13093;DHT22;6612;49.568;11.000;2024-03-02T09:17:49;15.60;62.90
13093;DHT22;6612;49.568;11.000;2024-03-02T09:20:16;15.60;61.70
13093;DHT22;6612;49.568;11.000;2024-03-02T09:22:43;15.70;60.60
13093;DHT22;6612;49.568;11.000;2024-03-02T09:25:13;15.70;60.50
13093;DHT22;6612;49.568;11.000;2024-03-02T09:27:41;15.70;60.40
13093;DHT22;6612;49.568;11.000;2024-03-02T09:30:09;15.70;59.70
13093;DHT22;6612;49.568;11.000;2024-03-02T09:32:36;15.60;59.80
13093;DHT22;6612;49.568;11.000;2024-03-02T09:35:04;15.60;60.00
13093;DHT22;6612;49.568;11.000;2024-03-02T09:37:31;15.70;60.70
13093;DHT22;6612;49.568;11.000;2024-03-02T09:39:58;15.70;61.30
13093;DHT22;6612;49.568;11.000;2024-03-02T09:42:25;15.80;61.30
13093;DHT22;6612;49.568;11.000;2024-03-02T09:44:54;15.80;61.60
13093;DHT22;6612;49.568;11.000;2024-03-02T09:47:21;15.90;60.40
13093;DHT22;6612;49.568;11.000;2024-03-02T09:49:48;16.00;60.60
13093;DHT22;6612;49.568;11.000;2024-03-02T09:52:16;16.00;59.90
13093;DHT22;6612;49.568;11.000;2024-03-02T09:54:43;16.10;59.00
13093;DHT22;6612;49.568;11.000;2024-03-02T09:57:10;16.20;59.50
13093;DHT22;6612;49.568;11.000;2024-03-02T09:59:37;16.20;60.90
13093;DHT22;6612;49.568;11.000;2024-03-02T10:02:05;16.30;60.70
13093;DHT22;6612;49.568;11.000;2024-03-02T10:04:33;16.40;60.30
13093;DHT22;6612;49.568;11.000;2024-03-02T10:07:11;16.50;60.00
13093;DHT22;6612;49.568;11.000;2024-03-02T10:09:39;16.60;59.10
13093;DHT22;6612;49.568;11.000;2024-03-02T10:12:07;16.70;60.00
13093;DHT22;6612;49.568;11.000;2024-03-02T10:14:35;16.70;59.60
13093;DHT22;6612;49.568;11.000;2024-03-02T10:17:03;16.80;59.00
13093;DHT22;6612;49.568;11.000;2024-03-02T10:19:32;16.90;58.30
13093;DHT22;6612;49.568;11.000;2024-03-02T10:22:01;16.90;58.30
13093;DHT22;6612;49.568;11.000;2024-03-02T10:24:35;17.00;58.30
13093;DHT22;6612;49.568;11.000;2024-03-02T10:27:11;17.00;57.30
13093;DHT22;6612;49.568;11.000;2024-03-02T10:29:41;17.10;57.40
13093;DHT22;6612;49.568;11.000;2024-03-02T10:32:09;17.10;58.40
13093;DHT22;6612;49.568;11.000;2024-03-02T10:34:40;17.20;58.50
13093;DHT22;6612;49.568;11.000;2024-03-02T10:37:07;17.20;58.20
13093;DHT22;6612;49.568;11.000;2024-03-02T10:39:34;17.30;58.60
13093;DHT22;6612;49.568;11.000;2024-03-02T10:42:03;17.40;58.60
13093;DHT22;6612;49.568;11.000;2024-03-02T10:44:32;17.50;57.30
13093;DHT22;6612;49.568;11.000;2024-03-02T10:47:00;17.60;57.80
13093;DHT22;6612;49.568;11.000;2024-03-02T10:49:29;17.70;57.30
13093;DHT22;6612;49.568;11.000;2024-03-02T10:51:58;17.70;58.00
13093;DHT22;6612;49.568;11.000;2024-03-02T10:54:26;17.80;57.90
13093;DHT22;6612;49.568;11.000;2024-03-02T10:56:58;17.90;58.00
13093;DHT22;6612;49.568;11.000;2024-03-02T10:59:28;18.00;57.80
13093;DHT22;6612;49.568;11.000;2024-03-02T11:01:57;18.10;57.30
13093;DHT22;6612;49.568;11.000;2024-03-02T11:04:26;18.20;57.30
13093;DHT22;6612;49.568;11.000;2024-03-02T11:06:59;18.30;57.30
13093;DHT22;6612;49.568;11.000;2024-03-02T11:09:28;18.30;56.40
13093;DHT22;6612;49.568;11.000;2024-03-02T11:12:02;18.40;56.50
13093;DHT22;6612;49.568;11.000;2024-03-02T11:14:31;18.40;56.70
13093;DHT22;6612;49.568;11.000;2024-03-02T11:17:00;18.50;56.40
13093;DHT22;6612;49.568;11.000;2024-03-02T11:19:29;18.50;55.50
13093;DHT22;6612;49.568;11.000;2024-03-02T11:21:58;18.50;54.30
13093;DHT22;6612;49.568;11.000;2024-03-02T11:24:33;18.50;54.20
13093;DHT22;6612;49.568;11.000;2024-03-02T11:27:01;18.50;53.70
13093;DHT22;6612;49.568;11.000;2024-03-02T11:29:48;18.40;54.20
13093;DHT22;6612;49.568;11.000;2024-03-02T11:32:19;18.40;52.80
13093;DHT22;6612;49.568;11.000;2024-03-02T11:34:48;18.40;53.20
13093;DHT22;6612;49.568;11.000;2024-03-02T11:37:18;18.40;54.10
13093;DHT22;6612;49.568;11.000;2024-03-02T11:39:48;18.40;54.30
13093;DHT22;6612;49.568;11.000;2024-03-02T11:42:16;18.30;54.00
13093;DHT22;6612;49.568;11.000;2024-03-02T11:44:45;18.30;54.00
13093;DHT22;6612;49.568;11.000;2024-03-02T11:47:15;18.30;53.70
13093;DHT22;6612;49.568;11.000;2024-03-02T11:49:43;18.30;54.00
13093;DHT22;6612;49.568;11.000;2024-03-02T11:52:12;18.30;54.40
13093;DHT22;6612;49.568;11.000;2024-03-02T11:54:44;18.40;54.20
13093;DHT22;6612;49.568;11.000;2024-03-02T11:57:15;18.40;53.80
13093;DHT22;6612;49.568;11.000;2024-03-02T11:59:42;18.40;53.80
13093;DHT22;6612;49.568;11.000;2024-03-02T12:02:15;18.40;53.20
13093;DHT22;6612;49.568;11.000;2024-03-02T12:04:43;18.40;52.10
13093;DHT22;6612;49.568;11.000;2024-03-02T12:07:12;18.40;53.20
13093;DHT22;6612;49.568;11.000;2024-03-02T12:09:40;18.40;53.40
13093;DHT22;6612;49.568;11.000;2024-03-02T12:12:08;18.40;53.20
13093;DHT22;6612;49.568;11.000;2024-03-02T12:14:37;18.40;53.30
13093;DHT22;6612;49.568;11.000;2024-03-02T12:17:05;18.50;53.10
13093;DHT22;6612;49.568;11.000;2024-03-02T12:19:33;18.50;53.30
13093;DHT22;6612;49.568;11.000;2024-03-02T12:22:00;18.50;52.70
13093;DHT22;6612;49.568;11.000;2024-03-02T12:24:29;18.50;52.80
13093;DHT22;6612;49.568;11.000;2024-03-02T12:26:57;18.50;52.40
13093;DHT22;6612;49.568;11.000;2024-03-02T12:29:25;18.50;51.30
13093;DHT22;6612;49.568;11.000;2024-03-02T12:31:52;18.50;51.60
13093;DHT22;6612;49.568;11.000;2024-03-02T12:34:20;18.50;52.30
13093;DHT22;6612;49.568;11.000;2024-03-02T12:36:47;18.40;52.10
13093;DHT22;6612;49.568;11.000;2024-03-02T12:39:18;18.40;52.00
13093;DHT22;6612;49.568;11.000;2024-03-02T12:41:46;18.40;52.30
13093;DHT22;6612;49.568;11.000;2024-03-02T12:44:17;18.40;52.30
13093;DHT22;6612;49.568;11.000;2024-03-02T12:46:44;18.40;52.10
13093;DHT22;6612;49.568;11.000;2024-03-02T12:49:14;18.40;51.90
13093;DHT22;6612;49.568;11.000;2024-03-02T12:51:42;18.40;51.80
13093;DHT22;6612;49.568;11.000;2024-03-02T12:54:10;18.40;51.60
13093;DHT22;6612;49.568;11.000;2024-03-02T12:56:38;18.30;50.80
13093;DHT22;6612;49.568;11.000;2024-03-02T12:59:05;18.30;51.50
13093;DHT22;6612;49.568;11.000;2024-03-02T13:01:33;18.30;51.80
13093;DHT22;6612;49.568;11.000;2024-03-02T13:04:00;18.20;51.00
13093;DHT22;6612;49.568;11.000;2024-03-02T13:06:28;18.20;51.30
13093;DHT22;6612;49.568;11.000;2024-03-02T13:08:55;18.20;51.40
13093;DHT22;6612;49.568;11.000;2024-03-02T13:11:22;18.20;51.50
13093;DHT22;6612;49.568;11.000;2024-03-02T13:13:50;18.20;51.50
13093;DHT22;6612;49.568;11.000;2024-03-02T13:16:18;18.20;51.30
13093;DHT22;6612;49.568;11.000;2024-03-02T13:18:47;18.20;51.70
13093;DHT22;6612;49.568;11.000;2024-03-02T13:21:14;18.20;51.20
13093;DHT22;6612;49.568;11.000;2024-03-02T13:23:41;18.20;51.60
13093;DHT22;6612;49.568;11.000;2024-03-02T13:26:08;18.20;51.80
13093;DHT22;6612;49.568;11.000;2024-03-02T13:28:36;18.20;51.50
13093;DHT22;6612;49.568;11.000;2024-03-02T13:31:04;18.20;50.70
13093;DHT22;6612;49.568;11.000;2024-03-02T13:33:32;18.20;51.60
13093;DHT22;6612;49.568;11.000;2024-03-02T13:36:00;18.20;51.40
13093;DHT22;6612;49.568;11.000;2024-03-02T13:38:28;18.20;51.30
13093;DHT22;6612;49.568;11.000;2024-03-02T13:40:55;18.30;51.20
13093;DHT22;6612;49.568;11.000;2024-03-02T13:43:22;18.30;51.30
13093;DHT22;6612;49.568;11.000;2024-03-02T13:45:50;18.30;51.30
13093;DHT22;6612;49.568;11.000;2024-03-02T13:48:19;18.30;51.40
13093;DHT22;6612;49.568;11.000;2024-03-02T13:50:46;18.30;51.40
13093;DHT22;6612;49.568;11.000;2024-03-02T13:53:14;18.30;51.10
13093;DHT22;6612;49.568;11.000;2024-03-02T13:55:41;18.30;50.90
13093;DHT22;6612;49.568;11.000;2024-03-02T13:58:09;18.30;51.10
13093;DHT22;6612;49.568;11.000;2024-03-02T14:00:37;18.30;50.30
13093;DHT22;6612;49.568;11.000;2024-03-02T14:03:06;18.30;50.60
13093;DHT22;6612;49.568;11.000;2024-03-02T14:05:33;18.20;50.00
13093;DHT22;6612;49.568;11.000;2024-03-02T14:08:00;18.20;49.80
13093;DHT22;6612;49.568;11.000;2024-03-02T14:10:29;18.20;48.30
13093;DHT22;6612;49.568;11.000;2024-03-02T14:12:56;18.10;49.10
13093;DHT22;6612;49.568;11.000;2024-03-02T14:15:23;18.10;49.60
13093;DHT22;6612;49.568;11.000;2024-03-02T14:17:50;18.10;49.70
13093;DHT22;6612;49.568;11.000;2024-03-02T14:20:17;18.10;49.80
13093;DHT22;6612;49.568;11.000;2024-03-02T14:22:48;18.10;49.40
13093;DHT22;6612;49.568;11.000;2024-03-02T14:25:15;18.10;50.00
13093;DHT22;6612;49.568;11.000;2024-03-02T14:27:44;18.20;49.20
13093;DHT22;6612;49.568;11.000;2024-03-02T14:30:13;18.20;49.00
13093;DHT22;6612;49.568;11.000;2024-03-02T14:32:40;18.20;48.50
13093;DHT22;6612;49.568;11.000;2024-03-02T14:35:08;18.10;48.80
13093;DHT22;6612;49.568;11.000;2024-03-02T14:37:37;18.20;48.90
13093;DHT22;6612;49.568;11.000;2024-03-02T14:40:05;18.10;48.30
13093;DHT22;6612;49.568;11.000;2024-03-02T14:42:35;18.10;48.90
13093;DHT22;6612;49.568;11.000;2024-03-02T14:45:04;18.10;48.90
13093;DHT22;6612;49.568;11.000;2024-03-02T14:47:32;18.10;47.80
13093;DHT22;6612;49.568;11.000;2024-03-02T14:50:01;18.10;48.30
13093;DHT22;6612;49.568;11.000;2024-03-02T14:52:31;18.10;48.50
13093;DHT22;6612;49.568;11.000;2024-03-02T14:54:58;18.10;48.90
13093;DHT22;6612;49.568;11.000;2024-03-02T14:57:25;18.10;48.40
13093;DHT22;6612;49.568;11.000;2024-03-02T14:59:52;18.10;47.90
13093;DHT22;6612;49.568;11.000;2024-03-02T15:02:21;18.10;48.30
13093;DHT22;6612;49.568;11.000;2024-03-02T15:04:48;18.10;48.00
13093;DHT22;6612;49.568;11.000;2024-03-02T15:07:16;18.10;48.70
13093;DHT22;6612;49.568;11.000;2024-03-02T15:09:43;18.10;49.20
13093;DHT22;6612;49.568;11.000;2024-03-02T15:12:10;18.10;49.60
13093;DHT22;6612;49.568;11.000;2024-03-02T15:14:40;18.00;49.20
13093;DHT22;6612;49.568;11.000;2024-03-02T15:17:12;18.00;49.30
13093;DHT22;6612;49.568;11.000;2024-03-02T15:19:44;18.00;49.30
13093;DHT22;6612;49.568;11.000;2024-03-02T15:22:11;17.90;49.40
13093;DHT22;6612;49.568;11.000;2024-03-02T15:24:38;17.90;49.50
13093;DHT22;6612;49.568;11.000;2024-03-02T15:27:06;17.80;49.50
13093;DHT22;6612;49.568;11.000;2024-03-02T15:29:34;17.80;49.60
13093;DHT22;6612;49.568;11.000;2024-03-02T15:32:01;17.70;49.20
13093;DHT22;6612;49.568;11.000;2024-03-02T15:34:30;17.60;49.10
13093;DHT22;6612;49.568;11.000;2024-03-02T15:36:59;17.60;49.40
13093;DHT22;6612;49.568;11.000;2024-03-02T15:39:27;17.50;49.50